createdAt,value
2023-01-30T00:01:16.253Z,-1.73
2023-01-30T00:03:42.855Z,-1.73
2023-01-30T00:06:10.544Z,-1.72
2023-01-30T00:08:37.156Z,-1.74
2023-01-30T00:11:08.604Z,-1.70
2023-01-30T00:13:36.084Z,-1.68
2023-01-30T00:16:03.408Z,-1.66
2023-01-30T00:18:30.359Z,-1.64
2023-01-30T00:20:57.674Z,-1.63
2023-01-30T00:23:26.309Z,-1.64
2023-01-30T00:25:53.170Z,-1.61
2023-01-30T00:28:19.769Z,-1.59
2023-01-30T00:30:50.392Z,-1.58
2023-01-30T00:33:17.882Z,-1.52
2023-01-30T00:35:49.606Z,-1.55
2023-01-30T00:38:16.405Z,-1.54
2023-01-30T00:40:43.739Z,-1.55
2023-01-30T00:43:34.553Z,-1.56
2023-01-30T00:46:28.649Z,-1.56
2023-01-30T00:48:55.272Z,-1.56
2023-01-30T00:51:21.826Z,-1.50
2023-01-30T00:53:48.403Z,-1.54
2023-01-30T00:56:15.146Z,-1.50
2023-01-30T00:58:41.806Z,-1.47
2023-01-30T01:01:11.044Z,-1.46
2023-01-30T01:03:37.631Z,-1.48
2023-01-30T01:06:04.394Z,-1.50
2023-01-30T01:08:31.029Z,-1.41
2023-01-30T01:10:57.651Z,-1.39
2023-01-30T01:13:25.239Z,-1.37
2023-01-30T01:15:51.832Z,-1.40
2023-01-30T01:18:18.398Z,-1.36
2023-01-30T01:20:46.080Z,-1.35
2023-01-30T01:23:12.702Z,-1.37
2023-01-30T01:25:39.390Z,-1.29
2023-01-30T01:28:06.464Z,-1.31
2023-01-30T01:30:33.077Z,-1.33
2023-01-30T01:32:59.719Z,-1.29
2023-01-30T01:35:27.848Z,-1.31
2023-01-30T01:37:55.396Z,-1.29
2023-01-30T01:40:42.000Z,-1.30
2023-01-30T01:43:19.933Z,-1.25
2023-01-30T01:45:52.054Z,-1.24
2023-01-30T01:48:27.417Z,-1.26
2023-01-30T01:50:59.042Z,-1.29
2023-01-30T01:53:30.177Z,-1.23
2023-01-30T01:55:59.785Z,-1.17
2023-01-30T01:58:45.319Z,-1.18
2023-01-30T02:01:21.926Z,-1.23
2023-01-30T02:03:55.854Z,-1.22
2023-01-30T02:06:22.880Z,-1.20
2023-01-30T02:08:57.686Z,-1.18
2023-01-30T02:11:47.831Z,-1.24
2023-01-30T02:14:15.779Z,-1.28
2023-01-30T02:16:46.173Z,-1.27
2023-01-30T02:19:31.030Z,-1.28
2023-01-30T02:22:17.840Z,-1.21
2023-01-30T02:24:57.063Z,-1.15
2023-01-30T02:27:45.110Z,-1.11
2023-01-30T02:30:17.683Z,-1.14
2023-01-30T02:33:27.772Z,-1.16
2023-01-30T02:36:24.339Z,-1.17
2023-01-30T02:39:07.418Z,-1.13
2023-01-30T02:41:44.671Z,-1.06
2023-01-30T02:44:37.586Z,-1.01
2023-01-30T02:47:11.594Z,-0.91
2023-01-30T02:49:48.322Z,-0.86
2023-01-30T02:52:17.495Z,-0.84
2023-01-30T02:54:45.835Z,-0.83
2023-01-30T02:57:22.104Z,-0.80
2023-01-30T02:59:59.216Z,-0.77
2023-01-30T03:02:40.000Z,-0.75
2023-01-30T03:05:59.365Z,-0.70
2023-01-30T03:08:32.285Z,-0.67
2023-01-30T03:11:07.665Z,-0.59
2023-01-30T03:13:43.628Z,-0.58
2023-01-30T03:16:15.883Z,-0.55
2023-01-30T03:18:45.120Z,-0.54
2023-01-30T03:21:15.774Z,-0.48
2023-01-30T03:23:46.026Z,-0.46
2023-01-30T03:26:27.713Z,-0.41
2023-01-30T03:28:54.807Z,-0.36
2023-01-30T03:31:21.625Z,-0.31
2023-01-30T03:33:48.348Z,-0.30
2023-01-30T03:36:15.393Z,-0.23
2023-01-30T03:38:42.072Z,-0.28
2023-01-30T03:41:08.839Z,-0.32
2023-01-30T03:43:35.527Z,-0.33
2023-01-30T03:46:04.767Z,-0.30
2023-01-30T03:48:31.384Z,-0.31
2023-01-30T03:50:57.954Z,-0.27
2023-01-30T03:53:24.553Z,-0.10
2023-01-30T03:55:51.162Z,-0.03
2023-01-30T03:58:23.604Z,0.03
2023-01-30T04:00:50.664Z,0.07
2023-01-30T04:03:17.421Z,0.12
2023-01-30T04:05:44.181Z,0.20
2023-01-30T04:08:10.987Z,0.20
2023-01-30T04:10:38.149Z,0.20
2023-01-30T04:13:05.131Z,0.24
2023-01-30T04:15:32.691Z,0.26
2023-01-30T04:18:22.302Z,0.33
2023-01-30T04:20:57.819Z,0.33
2023-01-30T04:23:32.005Z,0.35
2023-01-30T04:25:58.620Z,0.39
2023-01-30T04:28:25.904Z,0.38
2023-01-30T04:30:53.700Z,0.41
2023-01-30T04:33:41.403Z,0.40
2023-01-30T04:36:10.247Z,0.42
2023-01-30T04:38:37.094Z,0.39
2023-01-30T04:41:05.082Z,0.44
2023-01-30T04:43:34.532Z,0.53
2023-01-30T04:46:23.341Z,0.53
2023-01-30T04:48:49.936Z,0.58
2023-01-30T04:51:16.763Z,0.58
2023-01-30T04:53:43.375Z,0.70
2023-01-30T04:56:10.709Z,0.68
2023-01-30T04:58:37.389Z,0.70
2023-01-30T05:01:25.551Z,0.75
2023-01-30T05:03:53.437Z,0.81
2023-01-30T05:06:21.271Z,0.81
2023-01-30T05:08:49.678Z,0.83
2023-01-30T05:11:16.305Z,0.83
2023-01-30T05:13:44.001Z,0.93
2023-01-30T05:16:11.617Z,0.97
2023-01-30T05:18:38.451Z,0.96
2023-01-30T05:21:07.117Z,0.92
2023-01-30T05:23:33.861Z,0.99
2023-01-30T05:26:00.751Z,0.99
2023-01-30T05:28:28.920Z,1.00
2023-01-30T05:31:01.738Z,1.04
2023-01-30T05:33:28.758Z,1.02
2023-01-30T05:35:55.368Z,1.01
2023-01-30T05:38:26.267Z,1.03
2023-01-30T05:41:03.912Z,1.02
2023-01-30T05:43:31.326Z,1.03
2023-01-30T05:45:59.746Z,1.05
2023-01-30T05:48:26.863Z,1.09
2023-01-30T05:50:56.084Z,1.05
2023-01-30T05:53:24.859Z,1.10
2023-01-30T05:55:58.566Z,1.11
2023-01-30T05:58:25.850Z,1.07
2023-01-30T06:00:52.773Z,1.12
2023-01-30T06:03:19.620Z,1.13
2023-01-30T06:05:46.237Z,1.18
2023-01-30T06:08:12.862Z,1.21
2023-01-30T06:10:39.427Z,1.27
2023-01-30T06:13:06.081Z,1.28
2023-01-30T06:15:33.238Z,1.28
2023-01-30T06:17:59.871Z,1.27
2023-01-30T06:20:26.436Z,1.29
2023-01-30T06:22:52.997Z,1.29
2023-01-30T06:25:19.966Z,1.31
2023-01-30T06:27:47.015Z,1.30
2023-01-30T06:30:13.873Z,1.30
2023-01-30T06:32:41.468Z,1.31
2023-01-30T06:35:08.632Z,1.31
2023-01-30T06:37:35.270Z,1.26
2023-01-30T06:40:01.875Z,1.27
2023-01-30T06:42:28.480Z,1.32
2023-01-30T06:44:55.036Z,1.33
2023-01-30T06:47:21.654Z,1.34
2023-01-30T06:49:49.216Z,1.27
2023-01-30T06:52:15.810Z,1.24
2023-01-30T06:54:42.456Z,1.17
2023-01-30T06:57:09.051Z,1.17
2023-01-30T06:59:35.619Z,1.10
2023-01-30T07:02:02.230Z,1.04
2023-01-30T07:04:28.915Z,1.02
2023-01-30T07:06:55.684Z,0.97
2023-01-30T07:09:22.282Z,0.94
2023-01-30T07:11:50.291Z,0.86
2023-01-30T07:14:16.895Z,0.82
2023-01-30T07:16:43.506Z,0.82
2023-01-30T07:19:10.323Z,0.83
2023-01-30T07:21:36.920Z,0.88
2023-01-30T07:24:03.624Z,0.96
2023-01-30T07:26:31.302Z,1.00
2023-01-30T07:28:57.895Z,1.03
2023-01-30T07:31:24.578Z,1.17
2023-01-30T07:33:51.186Z,1.18
2023-01-30T07:36:17.764Z,1.23
2023-01-30T07:38:44.380Z,1.32
2023-01-30T07:41:10.973Z,1.40
2023-01-30T07:43:37.574Z,1.45
2023-01-30T07:46:04.765Z,1.47
2023-01-30T07:48:31.429Z,1.50
2023-01-30T07:50:58.042Z,1.56
2023-01-30T07:53:24.914Z,1.61
2023-01-30T07:55:51.622Z,1.55
2023-01-30T07:58:18.218Z,1.52
2023-01-30T08:00:45.360Z,1.61
2023-01-30T08:03:14.224Z,1.61
2023-01-30T08:05:41.042Z,1.57
2023-01-30T08:08:07.631Z,1.58
2023-01-30T08:10:34.216Z,1.60
2023-01-30T08:13:00.949Z,1.58
2023-01-30T08:15:27.586Z,1.66
2023-01-30T08:17:56.107Z,1.70
2023-01-30T08:20:23.118Z,1.67
2023-01-30T08:22:49.772Z,1.54
2023-01-30T08:25:16.375Z,1.41
2023-01-30T08:27:43.247Z,1.36
2023-01-30T08:30:11.816Z,1.35
2023-01-30T08:32:38.431Z,1.33
2023-01-30T08:35:05.371Z,1.29
2023-01-30T08:37:32.014Z,1.35
2023-01-30T08:39:58.698Z,1.37
2023-01-30T08:42:25.313Z,1.35
2023-01-30T08:44:51.851Z,1.36
2023-01-30T08:47:18.576Z,1.39
2023-01-30T08:49:45.187Z,1.47
2023-01-30T08:52:11.824Z,1.48
2023-01-30T08:54:38.400Z,1.54
2023-01-30T08:57:04.986Z,1.60
2023-01-30T08:59:31.586Z,1.61
2023-01-30T09:01:58.193Z,1.68
2023-01-30T09:04:26.380Z,1.75
2023-01-30T09:06:53.026Z,1.79
2023-01-30T09:09:19.821Z,1.82
2023-01-30T09:11:48.050Z,1.85
2023-01-30T09:14:19.636Z,1.89
2023-01-30T09:16:59.084Z,1.93
2023-01-30T09:19:27.768Z,1.97
2023-01-30T09:21:55.425Z,2.04
2023-01-30T09:24:26.904Z,2.09
2023-01-30T09:26:54.610Z,2.12
2023-01-30T09:29:21.252Z,2.14
2023-01-30T09:31:47.857Z,2.14
2023-01-30T09:34:14.552Z,2.15
2023-01-30T09:36:41.390Z,2.16
2023-01-30T09:39:08.038Z,2.17
2023-01-30T09:42:33.333Z,2.18
2023-01-30T09:45:41.899Z,2.19
2023-01-30T09:48:37.034Z,2.17
2023-01-30T09:51:13.839Z,2.21
2023-01-30T09:53:55.281Z,2.33
2023-01-30T09:56:21.915Z,2.39
2023-01-30T09:58:54.674Z,2.39
2023-01-30T10:01:28.446Z,2.46
2023-01-30T10:04:23.206Z,2.51
2023-01-30T10:07:08.481Z,2.56
2023-01-30T10:10:04.278Z,2.72
2023-01-30T10:12:55.642Z,2.73
2023-01-30T10:15:45.680Z,2.78
2023-01-30T10:18:34.943Z,2.89
2023-01-30T10:21:04.700Z,2.96
2023-01-30T10:23:56.069Z,3.01
2023-01-30T10:26:25.608Z,3.09
2023-01-30T10:29:06.551Z,3.39
2023-01-30T10:32:03.985Z,3.49
2023-01-30T10:34:40.437Z,3.60
2023-01-30T10:37:33.632Z,3.41
2023-01-30T10:40:26.361Z,3.28
2023-01-30T10:43:08.529Z,3.20
2023-01-30T10:45:53.268Z,3.10
2023-01-30T10:48:37.839Z,3.10
2023-01-30T10:51:48.187Z,3.09
2023-01-30T10:54:41.276Z,3.03
2023-01-30T10:57:25.600Z,2.98
2023-01-30T11:00:07.828Z,2.90
2023-01-30T11:02:48.229Z,2.77
2023-01-30T11:05:21.387Z,2.56
2023-01-30T11:07:48.864Z,2.48
2023-01-30T11:10:27.162Z,2.42
2023-01-30T11:12:58.583Z,2.42
2023-01-30T11:15:25.476Z,2.41
2023-01-30T11:18:40.414Z,2.42
2023-01-30T11:21:13.152Z,2.48
2023-01-30T11:23:42.999Z,2.53
2023-01-30T11:26:47.038Z,2.50
2023-01-30T11:29:33.340Z,2.50
2023-01-30T11:32:05.907Z,2.53
2023-01-30T11:34:32.760Z,2.43
2023-01-30T11:37:27.436Z,2.39
2023-01-30T11:39:54.113Z,2.36
2023-01-30T11:42:25.858Z,2.37
2023-01-30T11:45:10.868Z,2.39
2023-01-30T11:47:57.769Z,2.42
2023-01-30T11:50:36.664Z,2.37
2023-01-30T11:53:33.141Z,2.45
2023-01-30T11:56:08.566Z,2.42
2023-01-30T11:58:39.851Z,2.38
2023-01-30T12:01:10.836Z,2.36
2023-01-30T12:03:47.458Z,2.38
2023-01-30T12:06:22.725Z,2.44
2023-01-30T12:08:52.380Z,2.50
2023-01-30T12:11:24.814Z,2.50
2023-01-30T12:13:53.062Z,2.53
2023-01-30T12:16:25.434Z,2.51
2023-01-30T12:19:10.563Z,2.56
2023-01-30T12:21:37.111Z,2.63
2023-01-30T12:24:20.661Z,2.70
2023-01-30T12:26:53.518Z,2.91
2023-01-30T12:29:29.200Z,2.80
2023-01-30T12:32:13.253Z,2.80
2023-01-30T12:34:41.033Z,2.79
2023-01-30T12:37:30.048Z,2.79
2023-01-30T12:40:02.518Z,2.79
2023-01-30T12:43:00.139Z,2.89
2023-01-30T12:45:30.925Z,3.01
2023-01-30T12:48:10.334Z,3.01
2023-01-30T12:50:40.018Z,3.03
2023-01-30T12:53:15.627Z,3.08
2023-01-30T12:55:57.481Z,3.07
2023-01-30T12:58:28.304Z,3.04
2023-01-30T13:01:03.346Z,2.99
2023-01-30T13:03:40.299Z,3.05
2023-01-30T13:06:22.418Z,3.03
2023-01-30T13:09:19.936Z,3.05
2023-01-30T13:12:07.917Z,3.21
2023-01-30T13:14:38.834Z,3.28
2023-01-30T13:17:12.611Z,3.26
2023-01-30T13:19:42.266Z,3.30
2023-01-30T13:22:22.778Z,3.26
2023-01-30T13:24:49.436Z,3.16
2023-01-30T13:27:20.026Z,3.21
2023-01-30T13:29:48.118Z,3.20
2023-01-30T13:32:37.054Z,3.24
2023-01-30T13:35:07.923Z,3.29
2023-01-30T13:37:37.612Z,3.29
2023-01-30T13:40:16.482Z,3.34
2023-01-30T13:42:56.674Z,3.38
2023-01-30T13:45:27.194Z,3.46
2023-01-30T13:48:24.563Z,3.50
2023-01-30T13:51:20.622Z,3.59
2023-01-30T13:54:24.784Z,3.54
2023-01-30T13:57:01.344Z,3.54
2023-01-30T13:59:46.544Z,3.68
2023-01-30T14:02:18.792Z,3.77
2023-01-30T14:04:48.256Z,3.83
2023-01-30T14:07:14.835Z,3.73
2023-01-30T14:10:03.090Z,3.70
2023-01-30T14:12:54.720Z,3.66
2023-01-30T14:15:26.073Z,3.58
2023-01-30T14:18:02.270Z,3.54
2023-01-30T14:20:39.893Z,3.56
2023-01-30T14:23:19.151Z,3.59
2023-01-30T14:25:49.253Z,3.62
2023-01-30T14:28:15.863Z,3.53
2023-01-30T14:30:48.790Z,3.51
2023-01-30T14:33:21.580Z,3.47
2023-01-30T14:35:54.225Z,3.38
2023-01-30T14:38:22.130Z,3.30
2023-01-30T14:41:10.067Z,3.26
2023-01-30T14:43:42.600Z,3.22
2023-01-30T14:46:18.219Z,3.16
2023-01-30T14:48:47.473Z,3.13
2023-01-30T14:51:22.986Z,3.10
2023-01-30T14:54:07.853Z,3.10
2023-01-30T14:56:38.153Z,3.06
2023-01-30T14:59:21.848Z,3.07
2023-01-30T15:02:12.860Z,3.06
2023-01-30T15:05:11.622Z,3.07
2023-01-30T15:07:49.882Z,3.08
2023-01-30T15:10:31.498Z,3.10
2023-01-30T15:13:00.949Z,3.04
2023-01-30T15:15:45.438Z,3.01
2023-01-30T15:18:11.974Z,2.97
2023-01-30T15:21:00.822Z,2.95
2023-01-30T15:23:58.965Z,2.98
2023-01-30T15:26:34.901Z,2.93
2023-01-30T15:29:31.132Z,2.92
2023-01-30T15:32:00.906Z,2.87
2023-01-30T15:34:29.853Z,2.87
2023-01-30T15:36:56.594Z,2.86
2023-01-30T15:39:25.451Z,2.92
2023-01-30T15:41:57.058Z,2.92
2023-01-30T15:45:04.326Z,2.77
2023-01-30T15:47:52.812Z,2.69
2023-01-30T15:50:19.825Z,2.62
2023-01-30T15:52:49.808Z,2.54
2023-01-30T15:55:37.039Z,2.35
2023-01-30T15:58:10.907Z,2.25
2023-01-30T16:00:50.402Z,2.19
2023-01-30T16:03:31.417Z,2.10
2023-01-30T16:05:58.603Z,2.09
2023-01-30T16:08:34.724Z,2.09
2023-01-30T16:11:02.034Z,2.08
2023-01-30T16:13:29.867Z,2.05
2023-01-30T16:16:12.734Z,2.02
2023-01-30T16:18:55.184Z,2.03
2023-01-30T16:21:37.376Z,2.08
2023-01-30T16:24:13.944Z,2.08
2023-01-30T16:26:44.968Z,2.02
2023-01-30T16:29:19.290Z,2.06
2023-01-30T16:31:48.665Z,2.01
2023-01-30T16:34:33.870Z,2.01
2023-01-30T16:37:05.707Z,2.11
2023-01-30T16:39:35.788Z,2.15
2023-01-30T16:42:17.761Z,2.22
2023-01-30T16:44:44.362Z,2.26
2023-01-30T16:47:28.957Z,2.30
2023-01-30T16:49:56.497Z,2.38
2023-01-30T16:52:31.460Z,2.42
2023-01-30T16:55:02.410Z,2.45
2023-01-30T16:57:40.276Z,2.53
2023-01-30T17:00:20.207Z,2.64
2023-01-30T17:03:07.349Z,2.59
2023-01-30T17:05:40.021Z,2.60
2023-01-30T17:08:26.761Z,2.67
2023-01-30T17:11:01.795Z,2.65
2023-01-30T17:13:42.572Z,2.69
2023-01-30T17:16:24.258Z,2.67
2023-01-30T17:18:56.031Z,2.63
2023-01-30T17:21:25.532Z,2.62
2023-01-30T17:24:02.707Z,2.51
2023-01-30T17:26:30.352Z,2.52
2023-01-30T17:28:57.198Z,2.45
2023-01-30T17:31:23.937Z,2.48
2023-01-30T17:33:50.663Z,2.54
2023-01-30T17:36:25.153Z,2.55
2023-01-30T17:38:52.370Z,2.60
2023-01-30T17:41:30.232Z,2.55
2023-01-30T17:43:57.653Z,2.50
2023-01-30T17:46:35.135Z,2.42
2023-01-30T17:49:01.778Z,2.34
2023-01-30T17:51:28.354Z,2.36
2023-01-30T17:53:54.970Z,2.31
2023-01-30T17:56:26.520Z,2.30
2023-01-30T17:58:53.230Z,2.26
2023-01-30T18:01:19.893Z,2.29
2023-01-30T18:03:46.619Z,2.18
2023-01-30T18:06:15.604Z,2.26
2023-01-30T18:08:42.717Z,2.31
2023-01-30T18:11:11.856Z,2.36
2023-01-30T18:13:40.076Z,2.46
2023-01-30T18:16:07.130Z,2.52
2023-01-30T18:18:33.859Z,2.61
2023-01-30T18:21:00.484Z,2.57
2023-01-30T18:23:27.255Z,2.61
2023-01-30T18:25:53.835Z,2.71
2023-01-30T18:28:20.463Z,2.72
2023-01-30T18:30:47.344Z,2.73
2023-01-30T18:33:13.995Z,2.78
2023-01-30T18:35:40.715Z,2.82
2023-01-30T18:38:08.460Z,2.78
2023-01-30T18:40:39.041Z,2.82
2023-01-30T18:43:06.672Z,2.77
2023-01-30T18:45:34.487Z,2.81
2023-01-30T18:48:02.396Z,2.80
2023-01-30T18:50:30.393Z,2.89
2023-01-30T18:52:58.073Z,2.87
2023-01-30T18:55:25.663Z,2.93
2023-01-30T18:57:52.489Z,2.96
2023-01-30T19:00:21.293Z,2.98
2023-01-30T19:02:54.564Z,2.98
2023-01-30T19:05:21.416Z,2.95
2023-01-30T19:07:47.950Z,3.03
2023-01-30T19:10:17.332Z,3.09
2023-01-30T19:13:03.880Z,3.05
2023-01-30T19:15:30.635Z,3.05
2023-01-30T19:17:57.926Z,3.10
2023-01-30T19:20:25.042Z,3.14
2023-01-30T19:22:52.182Z,3.13
2023-01-30T19:25:18.811Z,3.14
2023-01-30T19:27:46.326Z,3.21
2023-01-30T19:30:13.748Z,3.22
2023-01-30T19:32:40.435Z,3.24
2023-01-30T19:35:07.832Z,3.24
2023-01-30T19:37:34.606Z,3.20
2023-01-30T19:40:01.205Z,3.22
2023-01-30T19:42:27.805Z,3.24
2023-01-30T19:44:54.435Z,3.27
2023-01-30T19:47:22.042Z,3.25
2023-01-30T19:49:48.840Z,3.25
2023-01-30T19:52:15.437Z,3.24
2023-01-30T19:54:42.053Z,3.31
2023-01-30T19:57:08.722Z,3.34
2023-01-30T19:59:38.686Z,3.37
2023-01-30T20:02:06.739Z,3.28
2023-01-30T20:04:33.428Z,3.32
2023-01-30T20:07:00.098Z,3.33
2023-01-30T20:09:26.829Z,3.39
2023-01-30T20:11:53.445Z,3.38
2023-01-30T20:14:20.005Z,3.35
2023-01-30T20:16:46.716Z,3.34
2023-01-30T20:19:15.786Z,3.41
2023-01-30T20:21:44.175Z,3.32
2023-01-30T20:24:15.729Z,3.41
2023-01-30T20:26:43.544Z,3.33
2023-01-30T20:29:11.151Z,3.38
2023-01-30T20:31:39.137Z,3.39
2023-01-30T20:34:10.683Z,3.39
2023-01-30T20:36:37.272Z,3.41
2023-01-30T20:39:06.438Z,3.32
2023-01-30T20:41:35.604Z,3.39
2023-01-30T20:44:03.548Z,3.39
2023-01-30T20:46:34.474Z,3.40
2023-01-30T20:49:01.505Z,3.36
2023-01-30T20:51:30.927Z,3.33
2023-01-30T20:54:06.239Z,3.30
2023-01-30T20:56:42.912Z,3.22
2023-01-30T20:59:11.266Z,3.14
2023-01-30T21:01:38.225Z,3.16
2023-01-30T21:04:07.132Z,3.11
2023-01-30T21:06:42.643Z,3.03
2023-01-30T21:09:20.612Z,3.00
2023-01-30T21:11:48.880Z,2.93
2023-01-30T21:14:16.670Z,2.87
2023-01-30T21:16:43.747Z,2.78
2023-01-30T21:19:15.066Z,2.88
2023-01-30T21:21:50.259Z,2.97
2023-01-30T21:24:19.965Z,3.02
2023-01-30T21:26:47.415Z,3.06
2023-01-30T21:29:16.182Z,3.06
2023-01-30T21:31:44.710Z,3.15
2023-01-30T21:34:12.420Z,3.17
2023-01-30T21:36:39.335Z,3.18
2023-01-30T21:39:41.764Z,3.24
2023-01-30T21:42:28.899Z,3.20
2023-01-30T21:44:55.545Z,3.22
2023-01-30T21:47:22.161Z,3.06
2023-01-30T21:49:48.736Z,2.97
2023-01-30T21:52:15.521Z,2.93
2023-01-30T21:54:42.103Z,2.71
2023-01-30T21:57:08.713Z,2.52
2023-01-30T21:59:35.313Z,2.47
2023-01-30T22:02:01.933Z,2.51
2023-01-30T22:04:28.595Z,2.50
2023-01-30T22:06:55.624Z,2.42
2023-01-30T22:09:22.210Z,2.52
2023-01-30T22:11:49.345Z,2.51
2023-01-30T22:14:16.033Z,2.55
2023-01-30T22:16:42.645Z,2.56
2023-01-30T22:19:09.655Z,2.55
2023-01-30T22:21:38.864Z,2.60
2023-01-30T22:24:08.746Z,2.68
2023-01-30T22:26:36.521Z,2.64
2023-01-30T22:29:05.084Z,2.61
2023-01-30T22:31:34.669Z,2.57
2023-01-30T22:34:02.094Z,2.60
2023-01-30T22:36:32.299Z,2.57
2023-01-30T22:38:59.008Z,2.55
2023-01-30T22:41:27.895Z,2.52
2023-01-30T22:43:56.533Z,2.53
2023-01-30T22:46:32.180Z,2.53
2023-01-30T22:49:00.439Z,2.49
2023-01-30T22:51:29.504Z,2.45
2023-01-30T22:54:07.380Z,2.33
2023-01-30T22:56:42.830Z,2.27
2023-01-30T22:59:09.790Z,2.25
2023-01-30T23:01:39.387Z,2.14
2023-01-30T23:04:17.561Z,2.16
2023-01-30T23:06:45.291Z,2.19
2023-01-30T23:09:15.667Z,2.14
2023-01-30T23:12:08.092Z,2.20
2023-01-30T23:14:35.817Z,2.26
2023-01-30T23:17:22.538Z,2.27
2023-01-30T23:19:49.090Z,2.33
2023-01-30T23:22:15.656Z,2.40
2023-01-30T23:24:42.328Z,2.47
2023-01-30T23:27:08.937Z,2.45
2023-01-30T23:29:36.467Z,2.48
2023-01-30T23:32:03.277Z,2.54
2023-01-30T23:34:29.913Z,2.55
2023-01-30T23:36:56.479Z,2.58
2023-01-30T23:39:23.088Z,2.61
2023-01-30T23:41:51.412Z,2.56
2023-01-30T23:44:17.973Z,2.54
2023-01-30T23:46:44.829Z,2.48
2023-01-30T23:49:14.043Z,2.41
2023-01-30T23:51:43.143Z,2.30
2023-01-30T23:54:10.792Z,2.21
2023-01-30T23:56:40.362Z,2.18
2023-01-30T23:59:06.961Z,2.07
